Time,TemperatureF,DewpointF,PressureIn,WindDirection,WindDirectionDegrees,WindSpeedMPH,WindSpeedGustMPH,Humidity,HourlyPrecipIn,Conditions,Clouds,dailyrainin,SoftwareType,DateUTC
2013-10-18 00:03:00,44.5,43.4,30.02,SW,232,0.0,0.0,96,0.00,,,0.00,Wunderground v.1.15,2013-10-18 05:03:00,
2013-10-18 00:09:00,44.4,43.3,30.02,SW,232,0.0,0.0,96,0.00,,,0.00,Wunderground v.1.15,2013-10-18 05:09:00,
2013-10-18 00:14:00,44.3,43.2,30.02,WSW,238,0.0,0.0,96,0.00,,,0.00,Wunderground v.1.15,2013-10-18 05:14:00,
2013-10-18 00:20:00,44.2,43.1,30.03,WSW,238,0.0,0.0,96,0.00,,,0.00,Wunderground v.1.15,2013-10-18 05:20:00,
2013-10-18 00:26:00,44.4,43.6,30.02,WSW,249,0.0,0.0,97,0.00,,,0.00,Wunderground v.1.15,2013-10-18 05:26:00,
2013-10-18 00:32:00,44.5,43.7,30.02,West,266,0.0,0.0,97,0.00,,,0.00,Wunderground v.1.15,2013-10-18 05:32:00,
2013-10-18 00:38:00,44.6,43.8,30.02,West,266,0.0,0.0,97,0.00,,,0.00,Wunderground v.1.15,2013-10-18 05:38:00,
2013-10-18 00:44:00,44.7,43.9,30.02,West,266,0.0,0.0,97,0.00,,,0.00,Wunderground v.1.15,2013-10-18 05:44:00,
2013-10-18 00:50:00,44.9,44.1,30.02,West,266,0.0,0.0,97,0.00,,,0.00,Wunderground v.1.15,2013-10-18 05:50:00,
2013-10-18 00:55:00,44.9,44.1,30.02,West,267,0.0,0.0,97,0.00,,,0.00,Wunderground v.1.15,2013-10-18 05:55:00,
2013-10-18 01:00:00,44.9,44.1,30.02,West,266,0.0,0.0,97,0.00,,,0.00,Wunderground v.1.15,2013-10-18 06:00:00,
2013-10-18 01:06:00,44.7,43.6,30.02,West,267,0.0,0.0,96,0.00,,,0.00,Wunderground v.1.15,2013-10-18 06:06:00,
2013-10-18 01:12:00,44.3,43.2,30.02,West,267,0.0,0.0,96,0.00,,,0.00,Wunderground v.1.15,2013-10-18 06:12:00,
2013-10-18 01:18:00,44.0,42.9,30.02,West,266,0.0,0.0,96,0.00,,,0.00,Wunderground v.1.15,2013-10-18 06:18:00,
2013-10-18 01:23:00,43.8,42.7,30.03,West,267,0.0,0.0,96,0.00,,,0.00,Wunderground v.1.15,2013-10-18 06:23:00,
2013-10-18 01:29:00,43.6,42.5,30.02,West,270,0.0,0.0,96,0.00,,,0.00,Wunderground v.1.15,2013-10-18 06:29:00,
2013-10-18 01:35:00,43.8,43.0,30.02,West,270,0.0,0.0,97,0.00,,,0.00,Wunderground v.1.15,2013-10-18 06:35:00,
2013-10-18 01:40:00,43.9,43.1,30.02,West,270,0.0,0.0,97,0.00,,,0.00,Wunderground v.1.15,2013-10-18 06:40:00,
2013-10-18 01:46:00,43.9,43.1,30.02,West,274,0.0,0.0,97,0.00,,,0.00,Wunderground v.1.15,2013-10-18 06:46:00,
2013-10-18 01:52:00,43.9,43.1,30.02,SW,229,0.0,0.0,97,0.00,,,0.00,Wunderground v.1.15,2013-10-18 06:52:00,
2013-10-18 01:58:00,44.0,43.2,30.03,WSW,246,0.0,0.0,97,0.00,,,0.00,Wunderground v.1.15,2013-10-18 06:58:00,
2013-10-18 02:03:00,44.1,43.3,30.02,WSW,247,0.0,0.0,97,0.00,,,0.00,Wunderground v.1.15,2013-10-18 07:03:00,
2013-10-18 02:09:00,44.2,43.4,30.03,SW,236,0.0,0.0,97,0.00,,,0.00,Wunderground v.1.15,2013-10-18 07:09:00,
2013-10-18 02:15:00,44.3,43.5,30.02,WSW,245,0.0,0.0,97,0.00,,,0.00,Wunderground v.1.15,2013-10-18 07:15:00,
2013-10-18 02:21:00,44.4,43.6,30.02,WSW,246,0.0,0.0,97,0.00,,,0.00,Wunderground v.1.15,2013-10-18 07:21:00,
2013-10-18 02:26:00,44.3,43.5,30.02,SW,235,0.0,0.0,97,0.00,,,0.00,Wunderground v.1.15,2013-10-18 07:26:00,
2013-10-18 02:32:00,44.2,43.4,30.02,SW,231,0.0,0.0,97,0.00,,,0.00,Wunderground v.1.15,2013-10-18 07:32:00,
2013-10-18 02:38:00,44.1,43.3,30.02,SW,231,0.0,0.0,97,0.00,,,0.00,Wunderground v.1.15,2013-10-18 07:38:00,
2013-10-18 02:44:00,44.0,43.2,30.02,West,266,0.0,0.0,97,0.00,,,0.00,Wunderground v.1.15,2013-10-18 07:44:00,
2013-10-18 02:50:00,44.0,43.2,30.02,West,280,0.0,1.0,97,0.00,,,0.00,Wunderground v.1.15,2013-10-18 07:50:00,
2013-10-18 02:56:00,44.0,43.2,30.03,West,278,0.0,1.0,97,0.00,,,0.00,Wunderground v.1.15,2013-10-18 07:56:00,
2013-10-18 03:02:00,44.1,43.3,30.03,SW,236,0.0,0.0,97,0.00,,,0.00,Wunderground v.1.15,2013-10-18 08:02:00,
2013-10-18 03:08:00,44.1,43.3,30.02,SW,236,0.0,0.0,97,0.00,,,0.00,Wunderground v.1.15,2013-10-18 08:08:00,
2013-10-18 03:13:00,44.0,43.2,30.02,SW,233,0.0,0.0,97,0.00,,,0.00,Wunderground v.1.15,2013-10-18 08:13:00,
2013-10-18 03:19:00,44.0,43.2,30.02,SW,233,0.0,0.0,97,0.00,,,0.00,Wunderground v.1.15,2013-10-18 08:19:00,
2013-10-18 03:25:00,44.1,43.3,30.02,SW,233,0.0,0.0,97,0.00,,,0.00,Wunderground v.1.15,2013-10-18 08:25:00,
2013-10-18 03:31:00,44.2,43.4,30.02,SW,233,0.0,0.0,97,0.00,,,0.00,Wunderground v.1.15,2013-10-18 08:31:00,
2013-10-18 03:37:00,44.4,43.6,30.02,WSW,248,0.0,1.0,97,0.00,,,0.00,Wunderground v.1.15,2013-10-18 08:37:00,
2013-10-18 03:43:00,44.4,43.6,30.02,WSW,253,0.0,1.0,97,0.00,,,0.00,Wunderground v.1.15,2013-10-18 08:43:00,
2013-10-18 03:49:00,44.4,43.6,30.02,WSW,238,0.0,1.0,97,0.00,,,0.00,Wunderground v.1.15,2013-10-18 08:49:00,
2013-10-18 03:54:00,44.5,43.7,30.02,SW,217,0.0,0.0,97,0.00,,,0.00,Wunderground v.1.15,2013-10-18 08:54:00,
2013-10-18 04:00:00,44.6,43.8,30.02,WSW,243,0.0,0.0,97,0.00,,,0.00,Wunderground v.1.15,2013-10-18 09:00:00,
2013-10-18 04:06:00,44.7,43.9,30.02,West,259,0.0,0.0,97,0.00,,,0.00,Wunderground v.1.15,2013-10-18 09:06:00,
2013-10-18 04:12:00,44.9,44.1,30.02,West,259,0.0,0.0,97,0.00,,,0.00,Wunderground v.1.15,2013-10-18 09:12:00,
2013-10-18 04:17:00,45.0,44.2,30.02,WSW,250,0.0,0.0,97,0.00,,,0.00,Wunderground v.1.15,2013-10-18 09:17:00,
2013-10-18 04:23:00,45.0,44.2,30.02,WSW,246,0.0,0.0,97,0.00,,,0.00,Wunderground v.1.15,2013-10-18 09:23:00,
2013-10-18 04:29:00,44.9,44.1,30.02,West,265,0.0,1.0,97,0.00,,,0.00,Wunderground v.1.15,2013-10-18 09:29:00,
2013-10-18 04:35:00,44.5,43.7,30.02,WNW,291,1.0,1.0,97,0.00,,,0.00,Wunderground v.1.15,2013-10-18 09:35:00,
2013-10-18 04:41:00,44.7,43.9,30.04,WNW,294,1.0,2.0,97,0.00,,,0.00,Wunderground v.1.15,2013-10-18 09:41:00,
2013-10-18 04:47:00,46.6,45.8,30.03,NW,309,2.0,3.0,97,0.00,,,0.00,Wunderground v.1.15,2013-10-18 09:47:00,
2013-10-18 04:53:00,46.1,45.3,30.03,WSW,257,1.0,1.0,97,0.00,,,0.00,Wunderground v.1.15,2013-10-18 09:53:00,
2013-10-18 04:58:00,45.6,44.8,30.03,WSW,256,0.0,1.0,97,0.00,,,0.00,Wunderground v.1.15,2013-10-18 09:58:00,
2013-10-18 05:04:00,45.4,44.6,30.03,WSW,256,0.0,0.0,97,0.00,,,0.00,Wunderground v.1.15,2013-10-18 10:04:00,
2013-10-18 05:10:00,45.3,44.5,30.03,WSW,256,0.0,0.0,97,0.00,,,0.00,Wunderground v.1.15,2013-10-18 10:10:00,
2013-10-18 05:16:00,45.4,44.6,30.04,WSW,256,0.0,0.0,97,0.00,,,0.00,Wunderground v.1.15,2013-10-18 10:16:00,
2013-10-18 05:21:00,45.5,44.7,30.04,WSW,256,0.0,0.0,97,0.00,,,0.00,Wunderground v.1.15,2013-10-18 10:21:00,
2013-10-18 05:27:00,45.6,44.8,30.04,West,259,0.0,0.0,97,0.00,,,0.00,Wunderground v.1.15,2013-10-18 10:27:00,
2013-10-18 05:33:00,45.5,44.7,30.04,WSW,258,0.0,1.0,97,0.00,,,0.00,Wunderground v.1.15,2013-10-18 10:33:00,
2013-10-18 05:39:00,45.5,44.7,30.04,WSW,258,0.0,1.0,97,0.00,,,0.00,Wunderground v.1.15,2013-10-18 10:39:00,
2013-10-18 05:45:00,45.5,44.7,30.04,WSW,258,0.0,1.0,97,0.00,,,0.00,Wunderground v.1.15,2013-10-18 10:45:00,
2013-10-18 05:51:00,45.4,44.6,30.04,WSW,248,0.0,1.0,97,0.00,,,0.00,Wunderground v.1.15,2013-10-18 10:51:00,
2013-10-18 05:57:00,45.4,44.6,30.04,WSW,248,0.0,1.0,97,0.00,,,0.00,Wunderground v.1.15,2013-10-18 10:57:00,
2013-10-18 06:02:00,45.3,44.5,30.04,WSW,248,0.0,0.0,97,0.00,,,0.00,Wunderground v.1.15,2013-10-18 11:02:00,
2013-10-18 06:08:00,45.2,44.4,30.05,WSW,248,0.0,0.0,97,0.00,,,0.00,Wunderground v.1.15,2013-10-18 11:08:00,
2013-10-18 06:14:00,45.1,44.3,30.05,WSW,251,0.0,0.0,97,0.00,,,0.00,Wunderground v.1.15,2013-10-18 11:14:00,
2013-10-18 06:20:00,44.9,44.1,30.05,WSW,239,0.0,0.0,97,0.00,,,0.00,Wunderground v.1.15,2013-10-18 11:20:00,
2013-10-18 06:26:00,44.7,43.9,30.05,WSW,243,0.0,0.0,97,0.00,,,0.00,Wunderground v.1.15,2013-10-18 11:26:00,
2013-10-18 06:32:00,44.7,43.9,30.05,WSW,243,0.0,1.0,97,0.00,,,0.00,Wunderground v.1.15,2013-10-18 11:32:00,
2013-10-18 06:38:00,44.5,43.7,30.06,West,264,0.0,1.0,97,0.00,,,0.00,Wunderground v.1.15,2013-10-18 11:38:00,
2013-10-18 06:44:00,44.4,43.6,30.06,WSW,243,0.0,1.0,97,0.00,,,0.00,Wunderground v.1.15,2013-10-18 11:44:00,
2013-10-18 06:49:00,44.4,43.6,30.06,WSW,243,0.0,1.0,97,0.00,,,0.00,Wunderground v.1.15,2013-10-18 11:49:00,
2013-10-18 06:55:00,44.2,43.4,30.06,WSW,243,0.0,1.0,97,0.00,,,0.00,Wunderground v.1.15,2013-10-18 11:55:00,
2013-10-18 07:00:00,44.2,43.4,30.06,WSW,243,0.0,0.0,97,0.00,,,0.00,Wunderground v.1.15,2013-10-18 12:00:00,
2013-10-18 07:06:00,44.2,43.4,30.06,WSW,250,0.0,0.0,97,0.00,,,0.00,Wunderground v.1.15,2013-10-18 12:06:00,
2013-10-18 07:11:00,44.1,43.3,30.06,WSW,250,0.0,0.0,97,0.00,,,0.00,Wunderground v.1.15,2013-10-18 12:11:00,
2013-10-18 07:17:00,43.7,42.9,30.06,WSW,250,0.0,0.0,97,0.00,,,0.00,Wunderground v.1.15,2013-10-18 12:17:00,
2013-10-18 07:23:00,43.6,42.8,30.06,WSW,250,0.0,0.0,97,0.00,,,0.00,Wunderground v.1.15,2013-10-18 12:23:00,
2013-10-18 07:29:00,43.7,42.9,30.06,WSW,250,0.0,0.0,97,0.00,,,0.00,Wunderground v.1.15,2013-10-18 12:29:00,
2013-10-18 07:34:00,43.8,43.0,30.06,WSW,250,0.0,0.0,97,0.00,,,0.00,Wunderground v.1.15,2013-10-18 12:34:00,
2013-10-18 07:40:00,43.8,43.0,30.06,WSW,250,0.0,0.0,97,0.00,,,0.00,Wunderground v.1.15,2013-10-18 12:40:00,
2013-10-18 07:46:00,43.9,43.1,30.07,WSW,250,0.0,0.0,97,0.00,,,0.00,Wunderground v.1.15,2013-10-18 12:46:00,
2013-10-18 07:51:00,44.2,43.4,30.07,West,259,0.0,0.0,97,0.00,,,0.00,Wunderground v.1.15,2013-10-18 12:51:00,
2013-10-18 07:57:00,44.1,43.3,30.07,West,260,0.0,0.0,97,0.00,,,0.00,Wunderground v.1.15,2013-10-18 12:57:00,
2013-10-18 08:03:00,44.3,43.5,30.07,West,260,0.0,0.0,97,0.00,,,0.00,Wunderground v.1.15,2013-10-18 13:03:00,
2013-10-18 08:09:00,44.6,43.8,30.07,West,259,0.0,0.0,97,0.00,,,0.00,Wunderground v.1.15,2013-10-18 13:09:00,
2013-10-18 08:14:00,44.7,43.9,30.07,West,266,0.0,0.0,97,0.00,,,0.00,Wunderground v.1.15,2013-10-18 13:14:00,
2013-10-18 08:20:00,44.9,44.4,30.08,SW,232,0.0,0.0,98,0.00,,,0.00,Wunderground v.1.15,2013-10-18 13:20:00,
2013-10-18 08:26:00,44.8,44.0,30.08,SW,235,0.0,0.0,97,0.00,,,0.00,Wunderground v.1.15,2013-10-18 13:26:00,
2013-10-18 08:32:00,45.0,44.2,30.08,WSW,243,0.0,0.0,97,0.00,,,0.00,Wunderground v.1.15,2013-10-18 13:32:00,
2013-10-18 08:37:00,45.0,44.2,30.08,WSW,240,0.0,0.0,97,0.00,,,0.00,Wunderground v.1.15,2013-10-18 13:37:00,
2013-10-18 08:43:00,45.4,44.6,30.08,SW,235,0.0,0.0,97,0.00,,,0.00,Wunderground v.1.15,2013-10-18 13:43:00,
2013-10-18 08:49:00,46.0,45.2,30.08,SE,127,0.0,2.0,97,0.00,,,0.00,Wunderground v.1.15,2013-10-18 13:49:00,
2013-10-18 08:55:00,46.0,45.2,30.08,ESE,120,1.0,3.0,97,0.00,,,0.00,Wunderground v.1.15,2013-10-18 13:55:00,
2013-10-18 09:00:00,45.8,45.0,30.08,ENE,58,1.0,1.0,97,0.00,,,0.00,Wunderground v.1.15,2013-10-18 14:00:00,
2013-10-18 09:06:00,46.3,45.5,30.08,NE,55,1.0,3.0,97,0.00,,,0.00,Wunderground v.1.15,2013-10-18 14:06:00,
2013-10-18 09:12:00,46.8,46.0,30.08,NE,47,1.0,3.0,97,0.00,,,0.00,Wunderground v.1.15,2013-10-18 14:12:00,
2013-10-18 09:17:00,46.8,46.0,30.08,ESE,108,2.0,4.0,97,0.00,,,0.00,Wunderground v.1.15,2013-10-18 14:17:00,
2013-10-18 09:23:00,47.2,46.4,30.08,ENE,68,2.0,3.0,97,0.00,,,0.00,Wunderground v.1.15,2013-10-18 14:23:00,
2013-10-18 09:29:00,47.4,46.6,30.08,NE,39,2.0,4.0,97,0.00,,,0.00,Wunderground v.1.15,2013-10-18 14:29:00,
2013-10-18 09:35:00,47.7,46.6,30.08,ESE,113,2.0,4.0,96,0.00,,,0.00,Wunderground v.1.15,2013-10-18 14:35:00,
2013-10-18 09:40:00,48.1,46.7,30.08,East,91,2.0,2.0,95,0.00,,,0.00,Wunderground v.1.15,2013-10-18 14:40:00,
2013-10-18 09:46:00,48.7,47.3,30.08,NNE,17,1.0,2.0,95,0.00,,,0.00,Wunderground v.1.15,2013-10-18 14:46:00,
2013-10-18 09:52:00,49.4,47.7,30.08,ESE,115,2.0,2.0,94,0.00,,,0.00,Wunderground v.1.15,2013-10-18 14:52:00,
2013-10-18 09:58:00,50.0,47.5,30.08,ESE,117,2.0,5.0,91,0.00,,,0.00,Wunderground v.1.15,2013-10-18 14:58:00,
2013-10-18 10:04:00,50.0,46.9,30.08,SE,124,3.0,5.0,89,0.00,,,0.00,Wunderground v.1.15,2013-10-18 15:04:00,
2013-10-18 10:10:00,50.2,46.8,30.08,East,82,3.0,3.0,88,0.00,,,0.00,Wunderground v.1.15,2013-10-18 15:10:00,
2013-10-18 10:16:00,50.3,46.9,30.08,East,101,2.0,3.0,88,0.00,,,0.00,Wunderground v.1.15,2013-10-18 15:16:00,
2013-10-18 10:22:00,50.6,46.9,30.08,ENE,73,2.0,4.0,87,0.00,,,0.00,Wunderground v.1.15,2013-10-18 15:22:00,
2013-10-18 10:27:00,50.8,46.8,30.08,SE,124,2.0,4.0,86,0.00,,,0.00,Wunderground v.1.15,2013-10-18 15:27:00,
2013-10-18 10:33:00,51.5,47.5,30.08,NE,56,2.0,5.0,86,0.00,,,0.00,Wunderground v.1.15,2013-10-18 15:33:00,
2013-10-18 10:39:00,51.8,47.1,30.07,NE,39,2.0,5.0,84,0.00,,,0.00,Wunderground v.1.15,2013-10-18 15:39:00,
2013-10-18 10:45:00,52.3,47.9,30.07,NNE,23,2.0,5.0,85,0.00,,,0.00,Wunderground v.1.15,2013-10-18 15:45:00,
2013-10-18 10:50:00,52.5,47.8,30.07,NE,52,2.0,2.0,84,0.00,,,0.00,Wunderground v.1.15,2013-10-18 15:50:00,
2013-10-18 10:56:00,52.7,47.7,30.06,ESE,108,2.0,5.0,83,0.00,,,0.00,Wunderground v.1.15,2013-10-18 15:56:00,
2013-10-18 11:02:00,53.2,47.8,30.06,ESE,107,2.0,4.0,82,0.00,,,0.00,Wunderground v.1.15,2013-10-18 16:02:00,
2013-10-18 11:07:00,53.8,48.4,30.05,ESE,109,2.0,4.0,82,0.00,,,0.00,Wunderground v.1.15,2013-10-18 16:07:00,
2013-10-18 11:13:00,54.3,48.6,30.05,North,1,3.0,4.0,81,0.00,,,0.00,Wunderground v.1.15,2013-10-18 16:13:00,
2013-10-18 11:18:00,54.3,48.3,30.05,ENE,63,3.0,5.0,80,0.00,,,0.00,Wunderground v.1.15,2013-10-18 16:18:00,
2013-10-18 11:24:00,54.4,48.0,30.05,ESE,111,3.0,6.0,79,0.00,,,0.00,Wunderground v.1.15,2013-10-18 16:24:00,
2013-10-18 11:30:00,55.1,48.7,30.04,East,98,3.0,3.0,79,0.00,,,0.00,Wunderground v.1.15,2013-10-18 16:30:00,
2013-10-18 11:36:00,55.6,48.8,30.04,NNW,343,2.0,8.0,78,0.00,,,0.00,Wunderground v.1.15,2013-10-18 16:36:00,
2013-10-18 11:41:00,55.7,49.3,30.04,ENE,75,3.0,8.0,79,0.00,,,0.00,Wunderground v.1.15,2013-10-18 16:41:00,
2013-10-18 11:47:00,56.4,50.3,30.03,NE,42,3.0,8.0,80,0.00,,,0.00,Wunderground v.1.15,2013-10-18 16:47:00,
2013-10-18 11:53:00,56.7,49.2,30.03,ESE,108,3.0,8.0,76,0.00,,,0.00,Wunderground v.1.15,2013-10-18 16:53:00,
2013-10-18 11:59:00,57.2,50.1,30.03,SE,132,3.0,8.0,77,0.00,,,0.00,Wunderground v.1.15,2013-10-18 16:59:00,
2013-10-18 12:05:00,57.9,50.7,30.04,NE,48,2.0,3.0,77,0.00,,,0.00,Wunderground v.1.15,2013-10-18 17:05:00,
2013-10-18 12:11:00,58.1,49.9,30.04,West,260,1.0,1.0,74,0.00,,,0.00,Wunderground v.1.15,2013-10-18 17:11:00,
2013-10-18 12:17:00,58.4,49.4,30.04,ENE,76,1.0,2.0,72,0.00,,,0.00,Wunderground v.1.15,2013-10-18 17:17:00,
2013-10-18 12:22:00,58.5,50.2,30.04,WNW,301,1.0,2.0,74,0.00,,,0.00,Wunderground v.1.15,2013-10-18 17:22:00,
2013-10-18 12:28:00,58.7,48.9,30.03,NNE,13,2.0,2.0,70,0.00,,,0.00,Wunderground v.1.15,2013-10-18 17:28:00,
2013-10-18 12:34:00,58.8,49.4,30.03,East,81,1.0,9.0,71,0.00,,,0.00,Wunderground v.1.15,2013-10-18 17:34:00,
2013-10-18 12:40:00,59.1,49.7,30.03,ESE,112,2.0,9.0,71,0.00,,,0.00,Wunderground v.1.15,2013-10-18 17:40:00,
2013-10-18 12:43:00,59.2,49.4,30.03,ESE,108,2.0,9.0,70,0.00,,,0.00,Wunderground v.1.15,2013-10-18 17:43:00,
2013-10-18 12:49:00,59.0,49.2,30.02,ESE,104,2.0,9.0,70,0.00,,,0.00,Wunderground v.1.15,2013-10-18 17:49:00,
2013-10-18 12:55:00,59.5,50.8,30.01,SE,129,2.0,9.0,73,0.00,,,0.00,Wunderground v.1.15,2013-10-18 17:55:00,
2013-10-18 13:00:00,60.0,50.9,30.01,North,10,2.0,2.0,72,0.00,,,0.00,Wunderground v.1.15,2013-10-18 18:00:00,
2013-10-18 13:05:00,60.5,49.9,30.01,North,357,2.0,4.0,68,0.00,,,0.00,Wunderground v.1.15,2013-10-18 18:05:00,
2013-10-18 13:11:00,59.9,50.1,30.01,ENE,59,2.0,2.0,70,0.00,,,0.00,Wunderground v.1.15,2013-10-18 18:11:00,
2013-10-18 13:17:00,59.9,49.3,30.00,ESE,113,2.0,2.0,68,0.00,,,0.00,Wunderground v.1.15,2013-10-18 18:17:00,
2013-10-18 13:23:00,59.7,49.1,30.00,NNE,28,2.0,2.0,68,0.00,,,0.00,Wunderground v.1.15,2013-10-18 18:23:00,
2013-10-18 13:28:00,59.6,49.0,30.00,NNE,32,1.0,2.0,68,0.00,,,0.00,Wunderground v.1.15,2013-10-18 18:28:00,
2013-10-18 13:34:00,60.5,49.9,30.00,East,98,1.0,4.0,68,0.00,,,0.00,Wunderground v.1.15,2013-10-18 18:34:00,
2013-10-18 13:40:00,60.9,49.5,30.00,ESE,105,2.0,2.0,66,0.00,,,0.00,Wunderground v.1.15,2013-10-18 18:40:00,
2013-10-18 13:46:00,61.3,49.4,29.99,ESE,107,1.0,4.0,65,0.00,,,0.00,Wunderground v.1.15,2013-10-18 18:46:00,
2013-10-18 13:52:00,61.6,49.7,29.99,ENE,77,0.0,4.0,65,0.00,,,0.00,Wunderground v.1.15,2013-10-18 18:52:00,
2013-10-18 13:58:00,61.5,49.6,29.98,NE,42,0.0,4.0,65,0.00,,,0.00,Wunderground v.1.15,2013-10-18 18:58:00,
2013-10-18 14:04:00,61.5,48.8,29.98,NNE,15,1.0,1.0,63,0.00,,,0.00,Wunderground v.1.15,2013-10-18 19:04:00,
2013-10-18 14:09:00,61.6,49.3,29.98,NNE,22,1.0,1.0,64,0.00,,,0.00,Wunderground v.1.15,2013-10-18 19:09:00,
2013-10-18 14:15:00,61.5,48.8,29.98,NE,44,0.0,1.0,63,0.00,,,0.00,Wunderground v.1.15,2013-10-18 19:15:00,
2013-10-18 14:20:00,61.5,48.8,29.98,NE,45,0.0,0.0,63,0.00,,,0.00,Wunderground v.1.15,2013-10-18 19:20:00,
2013-10-18 14:26:00,61.5,49.6,29.98,NE,45,0.0,0.0,65,0.00,,,0.00,Wunderground v.1.15,2013-10-18 19:26:00,
2013-10-18 14:32:00,61.4,49.1,29.97,NE,46,0.0,5.0,64,0.00,,,0.00,Wunderground v.1.15,2013-10-18 19:32:00,
2013-10-18 14:37:00,61.4,48.7,29.97,NE,45,0.0,5.0,63,0.00,,,0.00,Wunderground v.1.15,2013-10-18 19:37:00,
2013-10-18 14:43:00,61.4,49.9,29.98,NE,44,0.0,5.0,66,0.00,,,0.00,Wunderground v.1.15,2013-10-18 19:43:00,
2013-10-18 14:49:00,61.4,48.7,29.97,NE,42,0.0,5.0,63,0.00,,,0.00,Wunderground v.1.15,2013-10-18 19:49:00,
2013-10-18 14:54:00,61.4,49.9,29.97,ENE,75,0.0,5.0,66,0.00,,,0.00,Wunderground v.1.15,2013-10-18 19:54:00,
2013-10-18 15:00:00,61.6,49.7,29.97,ESE,102,0.0,2.0,65,0.00,,,0.00,Wunderground v.1.15,2013-10-18 20:00:00,
2013-10-18 15:06:00,61.3,49.4,29.97,East,93,2.0,3.0,65,0.00,,,0.00,Wunderground v.1.15,2013-10-18 20:06:00,
2013-10-18 15:12:00,61.3,49.8,29.97,ESE,105,2.0,2.0,66,0.00,,,0.00,Wunderground v.1.15,2013-10-18 20:12:00,
2013-10-18 15:17:00,61.6,50.1,29.98,East,86,1.0,2.0,66,0.00,,,0.00,Wunderground v.1.15,2013-10-18 20:17:00,
2013-10-18 15:23:00,61.7,49.8,29.98,East,98,0.0,0.0,65,0.00,,,0.00,Wunderground v.1.15,2013-10-18 20:23:00,
2013-10-18 15:29:00,61.7,49.4,29.98,East,97,0.0,0.0,64,0.00,,,0.00,Wunderground v.1.15,2013-10-18 20:29:00,
2013-10-18 15:35:00,61.8,50.7,29.98,East,97,0.0,1.0,67,0.00,,,0.00,Wunderground v.1.15,2013-10-18 20:35:00,
2013-10-18 15:41:00,61.7,50.2,29.98,East,97,0.0,1.0,66,0.00,,,0.00,Wunderground v.1.15,2013-10-18 20:41:00,
2013-10-18 15:47:00,61.5,50.0,29.97,ENE,72,0.0,2.0,66,0.00,,,0.00,Wunderground v.1.15,2013-10-18 20:47:00,
2013-10-18 15:53:00,61.3,50.6,29.97,East,89,0.0,1.0,68,0.00,,,0.00,Wunderground v.1.15,2013-10-18 20:53:00,
2013-10-18 15:59:00,61.3,51.8,29.97,ENE,57,1.0,2.0,71,0.00,,,0.00,Wunderground v.1.15,2013-10-18 20:59:00,
2013-10-18 16:04:00,61.1,50.8,29.97,NE,37,1.0,2.0,69,0.00,,,0.00,Wunderground v.1.15,2013-10-18 21:04:00,
2013-10-18 16:10:00,60.0,50.6,29.97,North,5,2.0,3.0,71,0.00,,,0.00,Wunderground v.1.15,2013-10-18 21:10:00,
2013-10-18 16:16:00,59.1,50.1,29.97,NW,323,3.0,4.0,72,0.00,,,0.00,Wunderground v.1.15,2013-10-18 21:16:00,
2013-10-18 16:22:00,58.5,50.2,29.97,NNW,345,2.0,3.0,74,0.00,,,0.00,Wunderground v.1.15,2013-10-18 21:22:00,
2013-10-18 16:27:00,58.0,49.8,29.96,East,84,2.0,3.0,74,0.00,,,0.00,Wunderground v.1.15,2013-10-18 21:27:00,
2013-10-18 16:33:00,57.5,49.6,29.97,NNE,23,3.0,5.0,75,0.00,,,0.00,Wunderground v.1.15,2013-10-18 21:33:00,
2013-10-18 16:39:00,57.2,49.7,29.97,NE,34,2.0,5.0,76,0.00,,,0.00,Wunderground v.1.15,2013-10-18 21:39:00,
2013-10-18 16:45:00,56.8,48.6,29.97,East,100,2.0,4.0,74,0.00,,,0.00,Wunderground v.1.15,2013-10-18 21:45:00,
2013-10-18 16:51:00,56.5,48.7,29.97,WSW,250,2.0,4.0,75,0.00,,,0.00,Wunderground v.1.15,2013-10-18 21:51:00,
2013-10-18 16:57:00,56.3,48.8,29.97,NE,47,2.0,4.0,76,0.00,,,0.00,Wunderground v.1.15,2013-10-18 21:57:00,
2013-10-18 17:03:00,56.2,48.7,29.97,NNE,16,2.0,4.0,76,0.00,,,0.00,Wunderground v.1.15,2013-10-18 22:03:00,
2013-10-18 17:08:00,55.8,48.7,29.97,NE,44,2.0,4.0,77,0.00,,,0.00,Wunderground v.1.15,2013-10-18 22:08:00,
2013-10-18 17:14:00,55.4,48.7,29.97,NNE,30,2.0,5.0,78,0.00,,,0.00,Wunderground v.1.15,2013-10-18 22:14:00,
2013-10-18 17:20:00,55.1,48.4,29.97,NE,43,2.0,2.0,78,0.00,,,0.00,Wunderground v.1.15,2013-10-18 22:20:00,
2013-10-18 17:26:00,55.0,48.6,29.98,NNE,27,2.0,4.0,79,0.00,,,0.00,Wunderground v.1.15,2013-10-18 22:26:00,
2013-10-18 17:31:00,54.8,48.1,29.98,NE,49,3.0,9.0,78,0.00,,,0.00,Wunderground v.1.15,2013-10-18 22:31:00,
2013-10-18 17:37:00,54.5,48.5,29.98,NE,39,3.0,9.0,80,0.00,,,0.01,Wunderground v.1.15,2013-10-18 22:37:00,
2013-10-18 17:43:00,54.0,48.6,29.99,ENE,64,1.0,9.0,82,0.00,,,0.01,Wunderground v.1.15,2013-10-18 22:43:00,
2013-10-18 17:49:00,53.6,48.2,29.99,NNE,25,0.0,9.0,82,0.00,,,0.01,Wunderground v.1.15,2013-10-18 22:49:00,
2013-10-18 17:55:00,53.4,48.7,29.99,NE,49,0.0,9.0,84,0.00,,,0.01,Wunderground v.1.15,2013-10-18 22:55:00,
2013-10-18 18:01:00,53.3,48.9,30.00,NNE,12,0.0,0.0,85,0.00,,,0.01,Wunderground v.1.15,2013-10-18 23:01:00,
2013-10-18 18:07:00,52.8,48.4,30.00,NNE,32,1.0,2.0,85,0.00,,,0.02,Wunderground v.1.15,2013-10-18 23:07:00,
2013-10-18 18:13:00,52.1,48.3,30.00,NE,53,1.0,1.0,87,0.00,,,0.02,Wunderground v.1.15,2013-10-18 23:13:00,
2013-10-18 18:19:00,51.5,47.8,30.01,NNE,33,2.0,3.0,87,0.00,,,0.02,Wunderground v.1.15,2013-10-18 23:19:00,
2013-10-18 18:25:00,51.2,47.8,30.01,NNE,20,2.0,2.0,88,0.00,,,0.02,Wunderground v.1.15,2013-10-18 23:25:00,
2013-10-18 18:31:00,50.9,47.5,30.01,NE,37,1.0,8.0,88,0.00,,,0.03,Wunderground v.1.15,2013-10-18 23:31:00,
2013-10-18 18:37:00,50.7,47.3,30.02,NE,49,1.0,8.0,88,0.00,,,0.03,Wunderground v.1.15,2013-10-18 23:37:00,
2013-10-18 18:42:00,50.6,47.5,30.02,ENE,58,1.0,8.0,89,0.00,,,0.03,Wunderground v.1.15,2013-10-18 23:42:00,
2013-10-18 18:48:00,50.5,47.4,30.01,North,8,2.0,8.0,89,0.00,,,0.03,Wunderground v.1.15,2013-10-18 23:48:00,
2013-10-18 18:54:00,50.3,47.2,30.02,NW,314,1.0,8.0,89,0.00,,,0.03,Wunderground v.1.15,2013-10-18 23:54:00,
2013-10-18 19:00:00,50.2,47.4,30.02,ENE,63,1.0,2.0,90,0.00,,,0.03,Wunderground v.1.15,2013-10-19 00:00:00,
2013-10-18 19:06:00,50.1,47.3,30.03,ENE,58,2.0,4.0,90,0.00,,,0.03,Wunderground v.1.15,2013-10-19 00:06:00,
2013-10-18 19:12:00,50.0,47.2,30.03,NE,42,2.0,2.0,90,0.00,,,0.03,Wunderground v.1.15,2013-10-19 00:12:00,
2013-10-18 19:18:00,49.7,46.3,30.03,ESE,113,3.0,5.0,88,0.00,,,0.03,Wunderground v.1.15,2013-10-19 00:18:00,
2013-10-18 19:24:00,49.2,45.5,30.03,NE,42,4.0,4.0,87,0.00,,,0.03,Wunderground v.1.15,2013-10-19 00:24:00,
2013-10-18 19:29:00,48.9,45.5,30.03,ESE,110,4.0,5.0,88,0.00,,,0.03,Wunderground v.1.15,2013-10-19 00:29:00,
2013-10-18 19:35:00,48.7,45.3,30.04,East,82,3.0,5.0,88,0.00,,,0.03,Wunderground v.1.15,2013-10-19 00:35:00,
2013-10-18 19:41:00,48.5,45.4,30.04,North,5,2.0,3.0,89,0.00,,,0.03,Wunderground v.1.15,2013-10-19 00:41:00,
2013-10-18 19:47:00,48.4,45.6,30.04,ESE,113,2.0,4.0,90,0.00,,,0.03,Wunderground v.1.15,2013-10-19 00:47:00,
2013-10-18 19:52:00,48.3,45.2,30.05,ESE,105,2.0,3.0,89,0.00,,,0.03,Wunderground v.1.15,2013-10-19 00:52:00,
2013-10-18 19:58:00,48.2,45.4,30.05,East,87,1.0,3.0,90,0.00,,,0.04,Wunderground v.1.15,2013-10-19 00:58:00,
2013-10-18 20:04:00,48.1,45.3,30.06,ENE,76,1.0,2.0,90,0.00,,,0.04,Wunderground v.1.15,2013-10-19 01:04:00,
2013-10-18 20:10:00,47.9,45.4,30.06,NE,46,1.0,2.0,91,0.00,,,0.04,Wunderground v.1.15,2013-10-19 01:10:00,
2013-10-18 20:16:00,47.6,45.1,30.06,NNE,18,1.0,2.0,91,0.00,,,0.05,Wunderground v.1.15,2013-10-19 01:16:00,
2013-10-18 20:22:00,47.4,44.9,30.06,NE,38,1.0,2.0,91,0.00,,,0.05,Wunderground v.1.15,2013-10-19 01:22:00,
2013-10-18 20:28:00,47.3,44.8,30.06,North,356,1.0,2.0,91,0.00,,,0.05,Wunderground v.1.15,2013-10-19 01:28:00,
2013-10-18 20:33:00,47.0,44.5,30.06,NE,49,2.0,9.0,91,0.04,,,0.06,Wunderground v.1.15,2013-10-19 01:33:00,
2013-10-18 20:39:00,46.7,44.5,30.06,ENE,71,1.0,9.0,92,0.04,,,0.06,Wunderground v.1.15,2013-10-19 01:39:00,
2013-10-18 20:45:00,46.6,44.4,30.06,NE,53,1.0,9.0,92,0.04,,,0.06,Wunderground v.1.15,2013-10-19 01:45:00,
2013-10-18 20:51:00,46.5,44.3,30.06,NE,49,2.0,9.0,92,0.00,,,0.07,Wunderground v.1.15,2013-10-19 01:51:00,
2013-10-18 20:56:00,46.4,44.2,30.06,ENE,70,2.0,9.0,92,0.00,,,0.07,Wunderground v.1.15,2013-10-19 01:56:00,
2013-10-18 21:02:00,46.4,44.5,30.05,ENE,68,2.0,2.0,93,0.00,,,0.07,Wunderground v.1.15,2013-10-19 02:02:00,
2013-10-18 21:08:00,46.4,44.5,30.06,East,94,2.0,3.0,93,0.00,,,0.07,Wunderground v.1.15,2013-10-19 02:08:00,
2013-10-18 21:14:00,46.4,44.5,30.06,NE,37,2.0,3.0,93,0.00,,,0.07,Wunderground v.1.15,2013-10-19 02:14:00,
2013-10-18 21:20:00,46.5,44.6,30.06,NE,35,1.0,1.0,93,0.00,,,0.07,Wunderground v.1.15,2013-10-19 02:20:00,
2013-10-18 21:26:00,46.4,44.5,30.07,NNE,19,1.0,2.0,93,0.00,,,0.07,Wunderground v.1.15,2013-10-19 02:26:00,
2013-10-18 21:32:00,46.3,44.4,30.06,ESE,107,1.0,4.0,93,0.00,,,0.07,Wunderground v.1.15,2013-10-19 02:32:00,
2013-10-18 21:37:00,46.3,44.4,30.06,SE,124,1.0,4.0,93,0.00,,,0.07,Wunderground v.1.15,2013-10-19 02:37:00,
2013-10-18 21:43:00,46.3,44.4,30.06,NE,53,2.0,4.0,93,0.00,,,0.08,Wunderground v.1.15,2013-10-19 02:43:00,
2013-10-18 21:49:00,46.4,44.5,30.06,ENE,74,1.0,4.0,93,0.00,,,0.08,Wunderground v.1.15,2013-10-19 02:49:00,
2013-10-18 21:55:00,46.4,44.8,30.06,NE,46,1.0,4.0,94,0.00,,,0.08,Wunderground v.1.15,2013-10-19 02:55:00,
2013-10-18 22:00:00,46.4,44.5,30.06,North,349,1.0,1.0,93,0.00,,,0.08,Wunderground v.1.15,2013-10-19 03:00:00,
2013-10-18 22:06:00,46.4,44.5,30.06,ENE,64,1.0,4.0,93,0.00,,,0.08,Wunderground v.1.15,2013-10-19 03:06:00,
2013-10-18 22:12:00,46.3,44.4,30.05,NE,42,1.0,2.0,93,0.00,,,0.08,Wunderground v.1.15,2013-10-19 03:12:00,
2013-10-18 22:18:00,46.3,44.4,30.05,NE,41,1.0,4.0,93,0.00,,,0.08,Wunderground v.1.15,2013-10-19 03:18:00,
2013-10-18 22:24:00,46.2,44.6,30.05,NNE,22,2.0,3.0,94,0.00,,,0.09,Wunderground v.1.15,2013-10-19 03:24:00,
2013-10-18 22:30:00,46.2,44.6,30.05,NE,50,1.0,1.0,94,0.00,,,0.09,Wunderground v.1.15,2013-10-19 03:30:00,
2013-10-18 22:36:00,46.3,44.7,30.04,NNE,22,0.0,4.0,94,0.00,,,0.09,Wunderground v.1.15,2013-10-19 03:36:00,
2013-10-18 22:41:00,46.2,44.6,30.05,East,82,0.0,4.0,94,0.00,,,0.09,Wunderground v.1.15,2013-10-19 03:41:00,
2013-10-18 22:47:00,46.2,44.6,30.05,NE,34,0.0,4.0,94,0.00,,,0.09,Wunderground v.1.15,2013-10-19 03:47:00,
2013-10-18 22:53:00,46.1,44.5,30.04,East,83,1.0,4.0,94,0.00,,,0.09,Wunderground v.1.15,2013-10-19 03:53:00,
2013-10-18 22:59:00,46.1,44.5,30.05,NNE,15,1.0,4.0,94,0.00,,,0.10,Wunderground v.1.15,2013-10-19 03:59:00,
2013-10-18 23:01:00,46.1,44.5,30.04,NNE,25,1.0,2.0,94,0.00,,,0.10,Wunderground v.1.15,2013-10-19 04:01:00,
2013-10-18 23:02:00,46.1,44.5,30.05,NW,309,1.0,2.0,94,0.00,,,0.10,Wunderground v.1.15,2013-10-19 04:02:00,
2013-10-18 23:03:00,46.0,44.4,30.05,NE,37,1.0,2.0,94,0.00,,,0.10,Wunderground v.1.15,2013-10-19 04:03:00,
2013-10-18 23:05:00,45.9,44.3,30.05,North,353,1.0,2.0,94,0.00,,,0.10,Wunderground v.1.15,2013-10-19 04:05:00,
2013-10-18 23:10:00,45.6,44.0,30.05,NNE,13,2.0,2.0,94,0.04,,,0.11,Wunderground v.1.15,2013-10-19 04:10:00,
2013-10-18 23:16:00,45.6,44.0,30.05,WNW,287,1.0,3.0,94,0.10,,,0.12,Wunderground v.1.15,2013-10-19 04:16:00,
2013-10-18 23:20:00,45.4,43.8,30.06,ENE,60,1.0,1.0,94,0.10,,,0.12,Wunderground v.1.15,2013-10-19 04:20:00,
2013-10-18 23:25:00,45.3,43.7,30.06,North,1,1.0,1.0,94,0.07,,,0.13,Wunderground v.1.15,2013-10-19 04:25:00,
2013-10-18 23:31:00,45.1,43.5,30.06,NW,316,1.0,6.0,94,0.13,,,0.14,Wunderground v.1.15,2013-10-19 04:31:00,
2013-10-18 23:37:00,45.0,43.4,30.06,NW,320,1.0,6.0,94,0.11,,,0.15,Wunderground v.1.15,2013-10-19 04:37:00,
2013-10-18 23:43:00,44.9,43.3,30.06,WNW,301,1.0,6.0,94,0.07,,,0.16,Wunderground v.1.15,2013-10-19 04:43:00,
2013-10-18 23:49:00,44.8,43.2,30.06,WNW,295,1.0,6.0,94,0.10,,,0.17,Wunderground v.1.15,2013-10-19 04:49:00,
2013-10-18 23:55:00,44.7,43.1,30.06,WNW,297,2.0,6.0,94,0.13,,,0.18,Wunderground v.1.15,2013-10-19 04:55:00,